Flight Track Log - Related Links

Times and Time Zones

All times are in EDT time to prevent confusion due to time zone crossing. See the DAL268 flight status page for this flight to view local times or setup timezone preferences in your user account.

Time Position Orientation Groundspeed Altitude Reporting Facility
EDT Latitude Longitude Course Direction KTS MPH feet Rate Location/Type
Thu 02:35:08 PM 37.6070 -122.3840 180° South  Level FlightAware ADS-B
Thu 02:37:00 PM 37.6893 -122.1155 67° East  Level FlightAware Approximate
Thu 02:40:00 PM 37.6999 -122.0838 67° East  Level FlightAware Approximate
Thu 02:41:00 PM 37.7527 -121.9467 65° Northeast  Level FlightAware Approximate
Thu 02:42:00 PM 37.8000 -121.8073 90° East  Level FlightAware Approximate
Thu 02:42:49 PM 37.6070 -122.3810 90° East  Level FlightAware ADS-B
Thu 02:43:32 PM 37.6130 -122.3760 28° Northeast 120 138 107 Level FlightAware ADS-B
Thu 02:43:45 PM 37.6222 -122.3710 23° Northeast 166 191 100 1,680 Climbing FlightAware ADS-B
Thu 02:43:57 PM 37.6300 -122.3650 31° Northeast 163 188 700 2,727 Climbing FlightAware ADS-B
Thu 02:44:07 PM 37.6360 -122.3600 33° Northeast 163 188 1,100 2,571 Climbing FlightAware ADS-B
Thu 02:44:11 PM 37.6381 -122.3570 49° Northeast 166 191 1,300 2,250 Climbing FlightAware ADS-B
Thu 02:44:15 PM 37.6401 -122.3540 50° Northeast 169 194 1,400 2,250 Climbing FlightAware ADS-B
Thu 02:44:19 PM 37.6420 -122.3510 51° Northeast 173 199 1,600 1,846 Climbing FlightAware ADS-B
Thu 02:44:28 PM 37.6465 -122.3440 51° Northeast 184 212 1,800 1,500 Climbing FlightAware ADS-B
Thu 02:44:43 PM 37.6556 -122.3290 53° Northeast 211 243 2,200 1,800 Climbing FlightAware ADS-B
Thu 02:44:58 PM 37.6646 -122.3150 51° Northeast 222 255 2,700 2,348 Climbing FlightAware ADS-B
Thu 02:45:06 PM 37.6701 -122.3070 49° Northeast 225 259 3,100 3,000 Climbing FlightAware ADS-B
Thu 02:45:10 PM 37.6727 -122.3030 51° Northeast 228 262 3,300 2,000 Climbing FlightAware ADS-B
Thu 02:45:15 PM 37.6772 -122.2990 35° Northeast 233 268 3,400 1,714 Climbing FlightAware ADS-B
Thu 02:45:24 PM 37.6853 -122.2930 30° Northeast 237 273 3,700 1,846 Climbing FlightAware ADS-B
Thu 02:45:28 PM 37.6903 -122.2920 North 246 283 3,800 1,800 Climbing FlightAware ADS-B
Thu 02:45:34 PM 37.6969 -122.2900 13° North 251 289 4,000 2,800 Climbing FlightAware ADS-B
Thu 02:45:43 PM 37.7071 -122.2880 North 254 292 4,500 3,600 Climbing FlightAware ADS-B
Thu 02:45:59 PM 37.7264 -122.2850 North 254 292 5,500 3,455 Climbing FlightAware ADS-B
Thu 02:46:16 PM 37.7468 -122.2830 North 256 295 6,400 3,130 Climbing FlightAware ADS-B
Thu 02:46:22 PM 37.7532 -122.2830 360° North 259 298 6,700 3,882 Climbing FlightAware ADS-B
Thu 02:46:33 PM 37.7672 -122.2810 North 258 297 7,500 3,750 Climbing FlightAware ADS-B
Thu 02:46:46 PM 37.7820 -122.2800 North 259 298 8,200 3,055 Climbing FlightAware ADS-B
Thu 02:47:28 PM 37.8322 -122.2660 12° North 263 303 10,300 2,960 Climbing FlightAware ADS-B
Thu 02:48:01 PM 37.8540 -122.2260 55° Northeast 292 336 11,900 3,000 Climbing FlightAware ADS-B
Thu 02:48:20 PM 37.8609 -122.1890 77° East 263 303 12,900 3,130 Climbing FlightAware ADS-B
Thu 02:48:24 PM 37.8622 -122.1820 77° East 302 348 13,100 2,571 Climbing FlightAware ADS-B
Thu 02:48:55 PM 37.8735 -122.1290 75° East 310 357 14,400 2,491 Climbing FlightAware ADS-B
Thu 02:49:17 PM 37.8832 -122.0910 72° East 309 356 15,300 2,571 Climbing FlightAware ADS-B
Thu 02:49:23 PM 37.8879 -122.0810 59° Northeast 305 351 15,600 2,842 Climbing FlightAware ADS-B
Thu 02:49:55 PM 37.9166 -122.0380 50° Northeast 305 351 17,100 2,600 Climbing FlightAware ADS-B
Thu 02:50:23 PM 37.9429 -121.9990 49° Northeast 312 359 18,200 2,526 Climbing FlightAware ADS-B
Thu 02:50:33 PM 37.9509 -121.9840 56° Northeast 318 366 18,700 2,526 Climbing FlightAware ADS-B
Thu 02:50:42 PM 37.9564 -121.9680 66° East 332 382 19,000 581 Climbing FlightAware ADS-B
Thu 02:51:04 PM 37.9670 -121.9270 72° East 364 419 19,000  Level FlightAware ADS-B
Thu 02:51:14 PM 37.9713 -121.9040 77° East 380 437 19,000 1,077 Level FlightAware ADS-B
Thu 02:51:43 PM 37.9791 -121.8390 81° East 399 459 19,700 1,867 Climbing FlightAware ADS-B
Thu 02:51:59 PM 37.9836 -121.8010 81° East 397 457 20,400 1,412 Climbing FlightAware ADS-B
Thu 02:52:34 PM 37.9969 -121.7210 78° East 422 486 20,900 923 Climbing FlightAware ADS-B
Thu 02:53:04 PM 38.0090 -121.6470 78° East 438 504 21,400 1,077 Climbing FlightAware ADS-B
Thu 02:53:13 PM 38.0136 -121.6210 77° East 442 509 21,600 1,500 Climbing FlightAware ADS-B
Thu 02:53:44 PM 38.0272 -121.5420 78° East 454 522 22,400 1,524 Climbing FlightAware ADS-B
Thu 02:54:16 PM 38.0420 -121.4580 77° East 461 531 23,200 1,429 Climbing FlightAware ADS-B
Thu 02:54:47 PM 38.0560 -121.3760 78° East 472 543 23,900 1,839 Climbing FlightAware ADS-B
Thu 02:55:18 PM 38.0693 -121.2930 78° East 468 539 25,100 1,588 Climbing FlightAware ADS-B
Thu 02:55:55 PM 38.0867 -121.1900 78° East 483 556 25,700 1,233 Climbing FlightAware ADS-B
Thu 02:56:31 PM 38.1035 -121.0920 78° East 487 560 26,600 1,135 Climbing FlightAware ADS-B
Thu 02:57:09 PM 38.1200 -120.9890 78° East 501 577 27,100 913 Climbing FlightAware ADS-B
Thu 02:57:17 PM 38.1239 -120.9610 80° East 496 571 27,300 1,569 Climbing FlightAware ADS-B
Thu 02:58:14 PM 38.1500 -120.7950 79° East 502 578 28,800 1,484 Climbing FlightAware ADS-B
Thu 02:58:50 PM 38.1660 -120.6920 79° East 506 582 29,600 1,297 Climbing FlightAware ADS-B
Thu 02:59:28 PM 38.1840 -120.5810 78° East 508 585 30,400 1,541 Climbing FlightAware ADS-B
Thu 03:00:04 PM 38.2010 -120.4780 78° East 499 574 31,500 1,500 Climbing FlightAware ADS-B
Thu 03:00:36 PM 38.2150 -120.3900 79° East 497 572 32,100 1,114 Climbing FlightAware ADS-B
Thu 03:01:14 PM 38.2330 -120.2780 78° East 499 574 32,800 1,043 Climbing FlightAware ADS-B
Thu 03:01:45 PM 38.2470 -120.1900 79° East 502 578 33,300 1,059 Climbing FlightAware ADS-B
Thu 03:01:48 PM 38.2485 -120.1794 80° East 504 580 33,400 632 Climbing FlightAware ADS-B
Thu 03:02:23 PM 38.2650 -120.0760 78° East 509 586 33,700 419 Climbing FlightAware ADS-B
Thu 03:02:31 PM 38.2684 -120.0533 79° East 511 588 33,700 632 Level FlightAware ADS-B
Thu 03:03:39 PM 38.2990 -119.8540 79° East 518 596 34,500 638 Climbing FlightAware ADS-B
Thu 03:04:05 PM 38.3135 -119.7619 79° East 525 604 34,700 366 Climbing FlightAware ADS-B
Thu 03:05:01 PM 38.3371 -119.6068 79° East 528 608 35,000 207 Climbing FlightAware ADS-B
Thu 03:05:32 PM 38.3520 -119.5110 79° East 526 605 35,000  Level FlightAware ADS-B
Thu 03:05:35 PM 38.3535 -119.4984 81° East 525 604 35,000  Level FlightAware ADS-B
Thu 03:06:08 PM 38.3680 -119.4010 79° East 522 601 35,000  Level FlightAware ADS-B
Thu 03:06:23 PM 38.3752 -119.3541 79° East 521 600 35,000  Level FlightAware ADS-B
Thu 03:06:55 PM 38.3891 -119.2609 79° East 522 601 35,000  Level FlightAware ADS-B
Thu 03:07:25 PM 38.4025 -119.1713 79° East 522 601 35,000  Level FlightAware ADS-B
Thu 03:07:55 PM 38.4168 -119.0742 79° East 522 601 35,000  Level FlightAware ADS-B
Thu 03:08:26 PM 38.4299 -118.9856 79° East 521 600 35,000  Level FlightAware ADS-B
Thu 03:08:59 PM 38.4450 -118.8830 79° East 520 598 35,000  Level FlightAware ADS-B
Thu 03:09:39 PM 38.4610 -118.7750 79° East 519 597 35,000  Level FlightAware ADS-B
Thu 03:10:10 PM 38.4750 -118.6750 80° East 519 597 35,000  Level FlightAware ADS-B
Thu 03:10:55 PM 38.4950 -118.5350 80° East 521 600 35,000  Level FlightAware ADS-B
Thu 03:11:27 PM 38.5090 -118.4380 80° East 522 601 35,000  Level FlightAware ADS-B
Thu 03:12:01 PM 38.5240 -118.3330 80° East 523 602 35,000  Level FlightAware ADS-B
Thu 03:12:39 PM 38.5390 -118.2200 80° East 524 603 35,000  Level FlightAware ADS-B
Thu 03:13:11 PM 38.5530 -118.1210 80° East 525 604 35,000  Level FlightAware ADS-B
Thu 03:13:53 PM 38.5690 -118.0070 80° East 524 603 35,000  Level FlightAware ADS-B
Thu 03:14:29 PM 38.5820 -117.9140 80° East 524 603 35,000  Level FlightAware ADS-B
Thu 03:15:07 PM 38.5950 -117.8150 80° East 524 603 35,000  Level FlightAware ADS-B
Thu 03:15:41 PM 38.6070 -117.7270 80° East 524 603 35,000  Level FlightAware ADS-B
Thu 03:16:18 PM 38.6210 -117.6310 79° East 524 603 35,000  Level FlightAware ADS-B
Thu 03:16:54 PM 38.6330 -117.5370 81° East 524 603 35,000  Level FlightAware ADS-B
Thu 03:17:31 PM 38.6470 -117.4410 79° East 524 603 35,000  Level FlightAware ADS-B
Thu 03:18:08 PM 38.6600 -117.3450 80° East 524 603 35,000  Level FlightAware ADS-B
Thu 03:18:44 PM 38.6730 -117.2510 80° East 524 603 35,000  Level FlightAware ADS-B
Thu 03:19:20 PM 38.6860 -117.1580 80° East 524 603 35,000  Level FlightAware ADS-B
Thu 03:19:56 PM 38.6990 -117.0640 80° East 524 603 35,000  Level FlightAware ADS-B
Thu 03:20:32 PM 38.7110 -116.9700 81° East 524 603 35,000  Level FlightAware ADS-B
Thu 03:21:09 PM 38.7250 -116.8740 79° East 524 603 35,000  Level FlightAware ADS-B
Thu 03:21:46 PM 38.7380 -116.7780 80° East 524 603 35,000  Level FlightAware ADS-B
Thu 03:22:20 PM 38.7500 -116.6900 80° East 524 603 35,000  Level FlightAware ADS-B
Thu 03:22:54 PM 38.7620 -116.6010 80° East 524 603 35,000  Level FlightAware ADS-B
Thu 03:24:02 PM 38.8475 -116.1431 80° East 534 615 35,000  Level Oakland Center
Thu 03:25:19 PM 38.8797 -115.9181 80° East 534 615 35,000  Level Salt Lake Center
Thu 03:26:21 PM 38.9047 -115.7289 80° East 537 618 35,000  Level Salt Lake Center
Thu 03:27:22 PM 38.9353 -115.5017 80° East 538 619 35,000 488 Level Salt Lake Center
Thu 03:28:24 PM 38.9628 -115.3061 80° East 535 616 36,000 774 Climbing Salt Lake Center
Thu 03:29:26 PM 38.9886 -115.1192 80° East 533 613 36,600 484 Climbing Salt Lake Center
Thu 03:30:28 PM 39.0125 -114.9303 81° East 535 616 37,000 61 Climbing Salt Lake Center
Thu 03:35:57 PM 39.1457 -113.8721 81° East 539 620 37,000  Level FlightAware ADS-B
Thu 03:36:28 PM 39.1573 -113.7755 81° East 540 621 37,000  Level FlightAware ADS-B
Thu 03:36:58 PM 39.1690 -113.6780 81° East 541 623 37,000  Level FlightAware ADS-B
Thu 03:37:29 PM 39.1804 -113.5817 81° East 541 623 37,000  Level FlightAware ADS-B
Thu 03:38:09 PM 39.1955 -113.4533 81° East 543 625 37,000  Level FlightAware ADS-B
Thu 03:38:39 PM 39.2068 -113.3565 81° East 541 623 37,000  Level FlightAware ADS-B
Thu 03:39:23 PM 39.2227 -113.2181 82° East 542 624 37,000  Level FlightAware ADS-B
Thu 03:40:08 PM 39.2390 -113.0749 82° East 542 624 37,000  Level FlightAware ADS-B
Thu 03:40:27 PM 39.2463 -113.0110 82° East 542 624 37,000  Level FlightAware ADS-B
Thu 03:40:58 PM 39.2571 -112.9150 82° East 541 623 37,000  Level FlightAware ADS-B
Thu 03:41:12 PM 39.2620 -112.8704 82° East 540 621 37,000  Level FlightAware ADS-B
Thu 03:41:28 PM 39.2678 -112.8180 82° East 539 620 37,000  Level FlightAware ADS-B
Thu 03:41:52 PM 39.2763 -112.7422 82° East 538 619 37,000  Level FlightAware ADS-B
Thu 03:42:01 PM 39.2794 -112.7140 82° East 538 619 37,000  Level FlightAware ADS-B
Thu 03:42:31 PM 39.2900 -112.6180 82° East 536 617 37,000  Level FlightAware ADS-B
Thu 03:42:48 PM 39.2963 -112.5650 81° East 539 620 37,000  Level FlightAware ADS-B
Thu 03:42:54 PM 39.2993 -112.5468 78° East 542 624 37,000  Level FlightAware ADS-B
Thu 03:43:01 PM 39.3034 -112.5250 76° East 545 627 37,000  Level FlightAware ADS-B
Thu 03:43:26 PM 39.3232 -112.4502 71° East 554 638 37,000  Level FlightAware ADS-B
Thu 03:43:33 PM 39.3317 -112.4260 66° East 555 639 37,000  Level FlightAware ADS-B
Thu 03:43:57 PM 39.3567 -112.3574 65° Northeast 553 636 37,000  Level FlightAware ADS-B
Thu 03:44:05 PM 39.3667 -112.3300 65° Northeast 553 636 37,000  Level FlightAware ADS-B
Thu 03:44:31 PM 39.3924 -112.2606 64° Northeast 554 638 37,000  Level FlightAware ADS-B
Thu 03:44:35 PM 39.4001 -112.2400 64° Northeast 554 638 37,000  Level FlightAware ADS-B
Thu 03:45:03 PM 39.4288 -112.1618 65° Northeast 554 638 37,000  Level FlightAware ADS-B
Thu 03:45:06 PM 39.4336 -112.1490 64° Northeast 554 638 37,000  Level FlightAware ADS-B
Thu 03:45:36 PM 39.4669 -112.0580 65° Northeast 555 639 37,000  Level FlightAware ADS-B
Thu 03:45:44 PM 39.4746 -112.0369 65° Northeast 555 639 37,000  Level FlightAware ADS-B
Thu 03:46:07 PM 39.5006 -111.9660 65° Northeast 557 641 37,000  Level FlightAware ADS-B
Thu 03:46:24 PM 39.5176 -111.9187 65° Northeast 556 640 37,000  Level FlightAware ADS-B
Thu 03:46:41 PM 39.5374 -111.8640 65° Northeast 555 639 37,000  Level FlightAware ADS-B
Thu 03:46:57 PM 39.5546 -111.8168 65° Northeast 553 636 37,000  Level FlightAware ADS-B
Thu 03:47:11 PM 39.5701 -111.7740 65° Northeast 554 638 37,000  Level FlightAware ADS-B
Thu 03:47:43 PM 39.6054 -111.6760 65° Northeast 555 639 37,000  Level FlightAware ADS-B
Thu 03:47:48 PM 39.6078 -111.6698 64° Northeast 555 639 37,000  Level FlightAware ADS-B
Thu 03:48:13 PM 39.6379 -111.5860 65° Northeast 555 639 37,000  Level FlightAware ADS-B
Thu 03:48:44 PM 39.6707 -111.4950 65° Northeast 554 638 37,000  Level FlightAware ADS-B
Thu 03:48:52 PM 39.6661 -111.5073 244° Southwest 554 638 37,000  Level FlightAware ADS-B
Thu 03:49:14 PM 39.7037 -111.4020 65° Northeast 553 636 37,000  Level FlightAware ADS-B
Thu 03:49:36 PM 39.7270 -111.3367 65° Northeast 553 636 37,000  Level FlightAware ADS-B
Thu 03:49:45 PM 39.7363 -111.3110 65° Northeast 553 636 37,000  Level FlightAware ADS-B
Thu 03:50:15 PM 39.7686 -111.2200 65° Northeast 554 638 37,000  Level FlightAware ADS-B
Thu 03:50:46 PM 39.8021 -111.1250 65° Northeast 554 638 37,000  Level FlightAware ADS-B
Thu 03:50:47 PM 39.8021 -111.1251 265° West 554 638 37,000  Level FlightAware ADS-B
Thu 03:51:17 PM 39.8351 -111.0320 65° Northeast 553 636 37,000  Level FlightAware ADS-B
Thu 03:51:52 PM 39.8718 -110.9270 65° Northeast 552 635 37,000  Level FlightAware ADS-B
Thu 03:52:39 PM 39.9218 -110.7850 65° Northeast 553 636 37,000  Level FlightAware ADS-B
Thu 03:53:27 PM 39.9640 -110.6630 66° East 550 633 37,000  Level FlightAware ADS-B
Thu 03:53:58 PM 40.0020 -110.5540 66° East 551 634 37,000  Level FlightAware ADS-B
Thu 03:54:32 PM 40.0320 -110.4670 66° East 551 634 37,000  Level FlightAware ADS-B
Thu 03:55:05 PM 40.0700 -110.3560 66° East 553 636 37,000  Level FlightAware ADS-B
Thu 03:55:40 PM 40.1090 -110.2450 65° Northeast 555 639 37,000  Level FlightAware ADS-B
Thu 03:56:17 PM 40.1460 -110.1270 68° East 553 636 37,000  Level FlightAware ADS-B
Thu 03:56:47 PM 40.1700 -110.0340 71° East 551 634 37,000  Level FlightAware ADS-B
Thu 03:57:27 PM 40.1990 -109.9040 74° East 549 632 37,000  Level FlightAware ADS-B
Thu 03:58:07 PM 40.2280 -109.7760 73° East 549 632 37,000  Level FlightAware ADS-B
Thu 03:58:41 PM 40.2510 -109.6700 74° East 549 632 37,000  Level FlightAware ADS-B
Thu 03:59:20 PM 40.2790 -109.5430 74° East 548 631 37,000  Level FlightAware ADS-B
Thu 03:59:56 PM 40.3040 -109.4260 74° East 548 631 37,000  Level FlightAware ADS-B
Thu 04:00:28 PM 40.3260 -109.3240 74° East 547 629 37,000  Level FlightAware ADS-B
Thu 04:01:04 PM 40.3510 -109.2100 74° East 548 631 37,000  Level FlightAware ADS-B
Thu 04:01:39 PM 40.3750 -109.1000 74° East 548 631 37,000  Level FlightAware ADS-B
Thu 04:02:12 PM 40.3970 -108.9940 75° East 547 629 37,000  Level FlightAware ADS-B
Thu 04:02:51 PM 40.4240 -108.8710 74° East 547 629 37,000  Level FlightAware ADS-B
Thu 04:03:27 PM 40.4480 -108.7560 75° East 548 631 37,000  Level FlightAware ADS-B
Thu 04:04:00 PM 40.4710 -108.6480 74° East 549 632 37,000  Level FlightAware ADS-B
Thu 04:04:34 PM 40.4940 -108.5390 74° East 549 632 37,000  Level FlightAware ADS-B
Thu 04:05:05 PM 40.5130 -108.4450 75° East 549 632 37,000  Level FlightAware ADS-B
Thu 04:05:52 PM 40.5460 -108.2880 74° East 549 632 37,000  Level FlightAware ADS-B
Thu 04:06:28 PM 40.5690 -108.1740 75° East 548 631 37,000  Level FlightAware ADS-B
Thu 04:07:02 PM 40.5920 -108.0640 75° East 549 632 37,000  Level FlightAware ADS-B
Thu 04:07:40 PM 40.6170 -107.9410 75° East 549 632 37,000  Level FlightAware ADS-B
Thu 04:08:13 PM 40.6380 -107.8360 75° East 548 631 37,000  Level FlightAware ADS-B
Thu 04:08:48 PM 40.6610 -107.7220 75° East 549 632 37,000  Level FlightAware ADS-B
Thu 04:09:24 PM 40.6840 -107.6050 75° East 550 633 37,000  Level FlightAware ADS-B
Thu 04:10:05 PM 40.7070 -107.4900 75° East 552 635 37,000  Level FlightAware ADS-B
Thu 04:10:41 PM 40.7310 -107.3690 75° East 552 635 37,000  Level FlightAware ADS-B
Thu 04:11:31 PM 40.7600 -107.2230 75° East 551 634 37,000  Level FlightAware ADS-B
Thu 04:12:02 PM 40.7850 -107.0930 76° East 551 634 37,000  Level FlightAware ADS-B
Thu 04:12:34 PM 40.8050 -106.9920 75° East 552 635 37,000  Level FlightAware ADS-B
Thu 04:13:14 PM 40.8270 -106.8810 75° East 552 635 37,000  Level FlightAware ADS-B
Thu 04:13:49 PM 40.8520 -106.7460 76° East 551 634 37,000  Level FlightAware ADS-B
Thu 04:14:25 PM 40.8750 -106.6270 76° East 553 636 37,000  Level FlightAware ADS-B
Thu 04:14:57 PM 40.8950 -106.5200 76° East 554 638 37,000  Level FlightAware ADS-B
Thu 04:15:35 PM 40.9180 -106.3980 76° East 554 638 37,000  Level FlightAware ADS-B
Thu 04:16:09 PM 40.9390 -106.2890 76° East 555 639 37,000  Level FlightAware ADS-B
Thu 04:16:43 PM 40.9600 -106.1760 76° East 554 638 37,000  Level FlightAware ADS-B
Thu 04:17:20 PM 40.9820 -106.0570 76° East 551 634 37,000  Level FlightAware ADS-B
Thu 04:17:56 PM 41.0030 -105.9440 76° East 554 638 37,000  Level FlightAware ADS-B
Thu 04:18:26 PM 41.0200 -105.8470 77° East 556 640 37,000  Level FlightAware ADS-B
Thu 04:19:03 PM 41.0440 -105.7170 76° East 551 634 37,000  Level FlightAware ADS-B
Thu 04:19:40 PM 41.0650 -105.6000 77° East 548 631 37,000  Level FlightAware ADS-B
Thu 04:20:13 PM 41.0860 -105.4840 76° East 549 632 37,000  Level FlightAware ADS-B
Thu 04:20:55 PM 41.1110 -105.3460 76° East 550 633 37,000  Level FlightAware ADS-B
Thu 04:21:32 PM 41.1310 -105.2290 77° East 550 633 37,000  Level FlightAware ADS-B
Thu 04:22:05 PM 41.1510 -105.1190 76° East 550 633 37,000  Level FlightAware ADS-B
Thu 04:22:42 PM 41.1720 -104.9960 77° East 550 633 37,000  Level FlightAware ADS-B
Thu 04:23:15 PM 41.1910 -104.8900 77° East 550 633 37,000  Level FlightAware ADS-B
Thu 04:23:52 PM 41.2140 -104.7670 76° East 551 634 37,000  Level FlightAware ADS-B
Thu 04:24:27 PM 41.2390 -104.6560 73° East 553 636 37,000  Level FlightAware ADS-B
Thu 04:25:01 PM 41.2650 -104.5440 73° East 553 636 37,000  Level FlightAware ADS-B
Thu 04:25:36 PM 41.2950 -104.4320 70° East 556 640 37,000  Level FlightAware ADS-B
Thu 04:26:11 PM 41.3370 -104.3280 62° Northeast 558 642 37,000  Level FlightAware ADS-B
Thu 04:26:45 PM 41.3810 -104.2240 61° Northeast 558 642 37,000  Level FlightAware ADS-B
Thu 04:27:20 PM 41.4250 -104.1190 61° Northeast 559 643 37,000  Level FlightAware ADS-B
Thu 04:27:57 PM 41.4710 -104.0090 61° Northeast 559 643 37,000  Level FlightAware ADS-B
Thu 04:28:32 PM 41.5150 -103.9060 60° Northeast 558 642 37,000  Level FlightAware ADS-B
Thu 04:29:08 PM 41.5590 -103.7970 62° Northeast 557 641 37,000  Level FlightAware ADS-B
Thu 04:29:38 PM 41.5890 -103.7000 68° East 554 638 37,000  Level FlightAware ADS-B
Thu 04:30:20 PM 41.6210 -103.5780 71° East 554 638 37,000  Level FlightAware ADS-B
Thu 04:30:57 PM 41.6470 -103.4760 71° East 554 638 37,000  Level FlightAware ADS-B
Thu 04:31:39 PM 41.6730 -103.3030 79° East 551 634 37,000  Level FlightAware ADS-B
Thu 04:32:20 PM 41.6960 -103.1880 75° East 551 634 37,000  Level FlightAware ADS-B
Thu 04:33:06 PM 41.7220 -103.0590 75° East 551 634 37,000  Level FlightAware ADS-B
Thu 04:33:44 PM 41.7430 -102.9530 75° East 551 634 37,000  Level FlightAware ADS-B
Thu 04:34:21 PM 41.7640 -102.8490 75° East 551 634 37,000  Level FlightAware ADS-B
Thu 04:34:58 PM 41.7850 -102.7450 75° East 551 634 37,000  Level FlightAware ADS-B
Thu 04:35:32 PM 41.8040 -102.6500 75° East 551 634 37,000  Level FlightAware ADS-B
Thu 04:36:06 PM 41.8230 -102.5540 75° East 551 634 37,000  Level FlightAware ADS-B
Thu 04:36:42 PM 41.8430 -102.4530 75° East 551 634 37,000  Level FlightAware ADS-B
Thu 04:37:19 PM 41.8640 -102.3490 75° East 551 634 37,000  Level FlightAware ADS-B
Thu 04:37:55 PM 41.8840 -102.2480 75° East 551 634 37,000  Level FlightAware ADS-B
Thu 04:38:32 PM 41.9050 -102.1440 75° East 551 634 37,000  Level FlightAware ADS-B
Thu 04:39:06 PM 41.9240 -102.0480 75° East 551 634 37,000  Level FlightAware ADS-B
Thu 04:39:42 PM 41.9440 -101.9470 75° East 551 634 37,000  Level FlightAware ADS-B
Thu 04:40:21 PM 41.9660 -101.8370 75° East 551 634 37,000  Level FlightAware ADS-B
Thu 04:40:58 PM 41.9870 -101.7330 75° East 551 634 37,000  Level FlightAware ADS-B
Thu 04:41:34 PM 42.0070 -101.6320 75° East 551 634 37,000  Level FlightAware ADS-B
Thu 04:42:04 PM 42.0536 -101.2472 75° East 548 631 37,000  Level Denver Center
Thu 04:43:06 PM 42.0872 -101.0544 77° East 550 633 37,000  Level Denver Center
Thu 04:44:08 PM 42.1261 -100.8294 77° East 553 636 37,000  Level Denver Center
Thu 04:45:10 PM 42.1583 -100.6392 77° East 545 627 37,000  Level Denver Center
Thu 04:51:09 PM 42.3564 -99.4273 77° East 536 617 37,000 65 Level FlightAware ADS-B
Thu 04:56:01 PM 42.4815 -98.4758 80° East 530 610 37,700 191 Climbing FlightAware ADS-B
Thu 05:01:02 PM 42.5250 -97.5070 86° East 39,000 232 Climbing FlightAware ADS-B
Thu 05:01:37 PM 42.5300 -97.3920 87° East 525 604 39,000  Level FlightAware ADS-B
Thu 05:02:15 PM 42.5350 -97.2530 87° East 526 605 39,000  Level FlightAware ADS-B
Thu 05:02:47 PM 42.5390 -97.1480 87° East 527 606 39,000  Level FlightAware ADS-B
Thu 05:03:19 PM 42.5430 -97.0470 87° East 527 606 39,000  Level FlightAware ADS-B
Thu 05:03:57 PM 42.5480 -96.9180 87° East 528 608 39,000  Level FlightAware ADS-B
Thu 05:04:09 PM 42.5488 -96.8829 88° East 529 609 39,000  Level FlightAware ADS-B
Thu 05:05:17 PM 42.5502 -96.8439 87° East 529 609 39,000  Level FlightAware ADS-B
Thu 05:06:18 PM 42.5630 -96.4570 87° East 526 605 39,000  Level FlightAware ADS-B
Thu 05:06:58 PM 42.5670 -96.3440 87° East 526 605 39,000  Level FlightAware ADS-B
Thu 05:07:36 PM 42.5710 -96.2030 88° East 522 601 39,000  Level FlightAware ADS-B
Thu 05:08:18 PM 42.5748 -96.0642 88° East 520 598 39,000  Level FlightAware ADS-B
Thu 05:08:48 PM 42.5780 -95.9630 88° East 519 597 39,000  Level FlightAware ADS-B
Thu 05:09:14 PM 42.5800 -95.8780 88° East 519 597 39,000  Level FlightAware ADS-B
Thu 05:09:54 PM 42.5840 -95.7690 87° East 518 596 39,000  Level FlightAware ADS-B
Thu 05:10:13 PM 42.5849 -95.6860 89° East 516 594 39,000  Level FlightAware ADS-B
Thu 05:11:07 PM 42.5862 -95.6318 88° East 515 593 39,000  Level FlightAware ADS-B
Thu 05:12:01 PM 42.5930 -95.3410 88° East 512 589 39,000  Level FlightAware ADS-B
Thu 05:12:37 PM 42.5950 -95.2270 89° East 510 587 39,000  Level FlightAware ADS-B
Thu 05:12:44 PM 42.5958 -95.2110 86° East 510 587 39,000  Level FlightAware ADS-B
Thu 05:13:44 PM 42.6000 -95.0110 88° East 509 586 39,000  Level FlightAware ADS-B
Thu 05:14:19 PM 42.6020 -94.9020 89° East 508 585 39,000  Level FlightAware ADS-B
Thu 05:14:57 PM 42.6040 -94.7900 89° East 508 585 39,000  Level FlightAware ADS-B
Thu 05:15:32 PM 42.6060 -94.6720 89° East 508 585 39,000  Level FlightAware ADS-B
Thu 05:16:04 PM 42.6070 -94.5670 89° East 508 585 39,000  Level FlightAware ADS-B
Thu 05:16:42 PM 42.6090 -94.4500 89° East 508 585 39,000  Level FlightAware ADS-B
Thu 05:17:14 PM 42.6110 -94.3450 88° East 507 583 39,000  Level FlightAware ADS-B
Thu 05:17:49 PM 42.6120 -94.2370 89° East 507 583 39,000  Level FlightAware ADS-B
Thu 05:18:24 PM 42.6130 -94.1230 89° East 507 583 39,000  Level FlightAware ADS-B
Thu 05:19:00 PM 42.6140 -94.0080 89° East 506 582 39,000  Level FlightAware ADS-B
Thu 05:19:36 PM 42.6140 -93.8950 90° East 506 582 39,000  Level FlightAware ADS-B
Thu 05:20:13 PM 42.6150 -93.7792 89° East 506 582 39,000  Level FlightAware ADS-B
Thu 05:20:46 PM 42.6160 -93.6720 89° East 506 582 39,000  Level FlightAware ADS-B
Thu 05:21:18 PM 42.6160 -93.5700 90° East 506 582 39,000  Level FlightAware ADS-B
Thu 05:21:54 PM 42.6160 -93.4580 90° East 506 582 39,000  Level FlightAware ADS-B
Thu 05:22:28 PM 42.6170 -93.3510 89° East 505 581 39,000  Level FlightAware ADS-B
Thu 05:23:03 PM 42.6170 -93.2410 90° East 506 582 39,000  Level FlightAware ADS-B
Thu 05:23:39 PM 42.6170 -93.1290 90° East 505 581 39,000  Level FlightAware ADS-B
Thu 05:24:11 PM 42.6170 -93.0320 90° East 505 581 39,000  Level FlightAware ADS-B
Thu 05:24:49 PM 42.6160 -92.9090 91° East 504 580 39,000  Level FlightAware ADS-B
Thu 05:25:24 PM 42.6160 -92.7940 90° East 503 579 39,000  Level FlightAware ADS-B
Thu 05:26:01 PM 42.6160 -92.6820 90° East 502 578 39,000  Level FlightAware ADS-B
Thu 05:26:34 PM 42.6150 -92.5730 91° East 501 577 39,000  Level FlightAware ADS-B
Thu 05:27:08 PM 42.6150 -92.4720 90° East 500 575 39,000  Level FlightAware ADS-B
Thu 05:27:47 PM 42.6140 -92.3500 91° East 499 574 39,000  Level FlightAware ADS-B
Thu 05:28:18 PM 42.6130 -92.2490 91° East 498 573 39,000  Level FlightAware ADS-B
Thu 05:28:54 PM 42.6120 -92.1370 91° East 496 571 39,000  Level FlightAware ADS-B
Thu 05:29:31 PM 42.6110 -92.0260 91° East 495 570 39,000  Level FlightAware ADS-B
Thu 05:30:04 PM 42.6100 -91.9270 91° East 494 568 39,000  Level FlightAware ADS-B
Thu 05:30:41 PM 42.6090 -91.8120 91° East 493 567 39,000  Level FlightAware ADS-B
Thu 05:31:17 PM 42.6070 -91.6990 91° East 491 565 39,000  Level FlightAware ADS-B
Thu 05:31:49 PM 42.6060 -91.6030 91° East 490 564 39,000  Level FlightAware ADS-B
Thu 05:32:21 PM 42.6050 -91.5070 91° East 489 563 39,000  Level FlightAware ADS-B
Thu 05:32:59 PM 42.6030 -91.3880 91° East 489 563 39,000  Level FlightAware ADS-B
Thu 05:33:34 PM 42.6010 -91.2880 92° East 489 563 39,000  Level FlightAware ADS-B
Thu 05:34:09 PM 42.5990 -91.1740 91° East 490 564 39,000  Level FlightAware ADS-B
Thu 05:34:47 PM 42.5970 -91.0560 91° East 491 565 39,000  Level FlightAware ADS-B
Thu 05:35:19 PM 42.5950 -90.9590 92° East 492 566 39,000  Level FlightAware ADS-B
Thu 05:35:54 PM 42.5930 -90.8490 91° East 492 566 39,000  Level FlightAware ADS-B
Thu 05:36:31 PM 42.5910 -90.7370 91° East 494 568 39,000  Level FlightAware ADS-B
Thu 05:37:07 PM 42.5880 -90.6200 92° East 495 570 39,000  Level FlightAware ADS-B
Thu 05:37:38 PM 42.5860 -90.5280 92° East 496 571 39,000  Level FlightAware ADS-B
Thu 05:38:14 PM 42.5840 -90.4150 91° East 496 571 39,000  Level FlightAware ADS-B
Thu 05:38:50 PM 42.5810 -90.3050 92° East 497 572 39,000  Level FlightAware ADS-B
Thu 05:39:19 PM 42.5790 -90.2130 92° East 497 572 39,000  Level FlightAware ADS-B
Thu 05:39:56 PM 42.5760 -90.0970 92° East 497 572 39,000  Level FlightAware ADS-B
Thu 05:40:30 PM 42.5730 -89.9910 92° East 496 571 39,000  Level FlightAware ADS-B
Thu 05:41:02 PM 42.5700 -89.8940 92° East 496 571 39,000  Level FlightAware ADS-B
Thu 05:41:41 PM 42.5660 -89.7730 93° East 495 570 39,000  Level FlightAware ADS-B
Thu 05:42:16 PM 42.5630 -89.6630 92° East 494 568 39,000  Level FlightAware ADS-B
Thu 05:42:53 PM 42.5590 -89.5490 93° East 492 566 39,000  Level FlightAware ADS-B
Thu 05:43:25 PM 42.5560 -89.4510 92° East 491 565 39,000  Level FlightAware ADS-B
Thu 05:44:03 PM 42.5520 -89.3340 93° East 489 563 39,000  Level FlightAware ADS-B
Thu 05:44:34 PM 42.5490 -89.2390 92° East 486 559 39,000  Level FlightAware ADS-B
Thu 05:45:11 PM 42.5460 -89.1320 92° East 483 556 39,000  Level FlightAware ADS-B
Thu 05:45:47 PM 42.5420 -89.0230 93° East 480 552 39,000  Level FlightAware ADS-B
Thu 05:46:19 PM 42.5380 -88.9240 93° East 478 550 39,000  Level FlightAware ADS-B
Thu 05:46:55 PM 42.5340 -88.8190 93° East 476 548 39,000  Level FlightAware ADS-B
Thu 05:47:30 PM 42.5300 -88.7110 93° East 475 547 39,000  Level FlightAware ADS-B
Thu 05:48:07 PM 42.5260 -88.6030 93° East 473 544 39,000  Level FlightAware ADS-B
Thu 05:48:43 PM 42.5210 -88.4970 94° East 472 543 39,000  Level FlightAware ADS-B
Thu 05:49:15 PM 42.5170 -88.4010 93° East 471 542 39,000  Level FlightAware ADS-B
Thu 05:49:51 PM 42.5130 -88.2940 93° East 470 541 39,000  Level FlightAware ADS-B
Thu 05:50:24 PM 42.5090 -88.2000 93° East 470 541 39,000  Level FlightAware ADS-B
Thu 05:50:58 PM 42.5050 -88.1030 93° East 469 540 39,000  Level FlightAware ADS-B
Thu 05:51:35 PM 42.5010 -87.9910 93° East 468 539 39,000  Level FlightAware ADS-B
Thu 05:52:10 PM 42.5000 -87.8970 91° East 467 537 39,000  Level FlightAware ADS-B
Thu 05:52:41 PM 42.5000 -87.8000 90° East 467 537 39,000  Level FlightAware ADS-B
Thu 05:53:22 PM 42.5000 -87.6790 90° East 467 537 39,000  Level FlightAware ADS-B
Thu 05:53:54 PM 42.4990 -87.5890 91° East 467 537 39,000  Level FlightAware ADS-B
Thu 05:54:32 PM 42.4990 -87.4750 90° East 467 537 39,000  Level FlightAware ADS-B
Thu 05:55:05 PM 42.4990 -87.3810 90° East 467 537 39,000  Level FlightAware ADS-B
Thu 05:55:39 PM 42.4980 -87.2870 91° East 467 537 39,000  Level FlightAware ADS-B
Thu 05:56:22 PM 42.4970 -87.1610 91° East 468 539 39,000  Level FlightAware ADS-B
Thu 05:56:58 PM 42.4960 -87.0510 91° East 468 539 39,000  Level FlightAware ADS-B
Thu 05:57:31 PM 42.4960 -86.9570 90° East 469 540 39,000  Level FlightAware ADS-B
Thu 05:58:08 PM 42.4950 -86.8530 91° East 469 540 39,000  Level FlightAware ADS-B
Thu 05:58:43 PM 42.4940 -86.7440 91° East 470 541 39,000  Level FlightAware ADS-B
Thu 05:59:19 PM 42.4920 -86.6380 91° East 470 541 39,000  Level FlightAware ADS-B
Thu 05:59:52 PM 42.4910 -86.5430 91° East 470 541 39,000  Level FlightAware ADS-B
Thu 06:00:28 PM 42.4900 -86.4370 91° East 470 541 39,000  Level FlightAware ADS-B
Thu 06:01:01 PM 42.4880 -86.3380 92° East 470 541 39,000  Level FlightAware ADS-B
Thu 06:01:40 PM 42.4870 -86.2300 91° East 469 540 39,000  Level FlightAware ADS-B
Thu 06:02:12 PM 42.4850 -86.1280 91° East 468 539 39,000  Level FlightAware ADS-B
Thu 06:02:52 PM 42.4830 -86.0160 91° East 467 537 39,000  Level FlightAware ADS-B
Thu 06:03:21 PM 42.4820 -85.9250 91° East 467 537 39,000  Level FlightAware ADS-B
Thu 06:04:01 PM 42.4800 -85.8130 91° East 466 536 39,000  Level FlightAware ADS-B
Thu 06:04:33 PM 42.4780 -85.7190 92° East 466 536 39,000  Level FlightAware ADS-B
Thu 06:05:19 PM 42.4750 -85.5850 92° East 467 537 39,000  Level FlightAware ADS-B
Thu 06:05:49 PM 42.4730 -85.4980 92° East 468 539 39,000  Level FlightAware ADS-B
Thu 06:06:23 PM 42.4710 -85.3950 91° East 469 540 39,000  Level FlightAware ADS-B
Thu 06:07:04 PM 42.4690 -85.2830 91° East 470 541 39,000  Level FlightAware ADS-B
Thu 06:07:33 PM 42.4660 -85.1900 92° East 471 542 39,000  Level FlightAware ADS-B
Thu 06:08:06 PM 42.4640 -85.0930 92° East 472 543 39,000  Level FlightAware ADS-B
Thu 06:08:46 PM 42.4610 -84.9810 92° East 473 544 39,000  Level FlightAware ADS-B
Thu 06:09:22 PM 42.4580 -84.8680 92° East 473 544 39,000  Level FlightAware ADS-B
Thu 06:09:56 PM 42.4550 -84.7710 92° East 473 544 39,000  Level FlightAware ADS-B
Thu 06:10:25 PM 42.4530 -84.6860 92° East 472 543 39,000  Level FlightAware ADS-B
Thu 06:11:21 PM 42.4490 -84.5610 92° East 470 541 39,000  Level FlightAware ADS-B
Thu 06:12:02 PM 42.4450 -84.4020 92° East 467 537 39,000  Level FlightAware ADS-B
Thu 06:12:38 PM 42.4410 -84.2960 93° East 465 535 39,000  Level FlightAware ADS-B
Thu 06:13:10 PM 42.4380 -84.2040 92° East 463 533 39,000  Level FlightAware ADS-B
Thu 06:13:48 PM 42.4340 -84.0900 93° East 462 532 39,000  Level FlightAware ADS-B
Thu 06:14:24 PM 42.4310 -83.9890 92° East 462 532 39,000  Level FlightAware ADS-B
Thu 06:14:56 PM 42.4280 -83.8940 92° East 461 531 39,000  Level FlightAware ADS-B
Thu 06:15:33 PM 42.4240 -83.7900 93° East 460 529 39,000  Level FlightAware ADS-B
Thu 06:16:07 PM 42.4200 -83.6930 93° East 459 528 39,000  Level FlightAware ADS-B
Thu 06:16:41 PM 42.4170 -83.5930 92° East 458 527 39,000  Level FlightAware ADS-B
Thu 06:17:17 PM 42.4130 -83.4930 93° East 457 526 39,000  Level FlightAware ADS-B
Thu 06:17:51 PM 42.4090 -83.3950 93° East 456 525 39,000  Level FlightAware ADS-B
Thu 06:18:29 PM 42.4040 -83.2870 94° East 454 522 39,000  Level FlightAware ADS-B
Thu 06:19:01 PM 42.4010 -83.1980 93° East 452 520 39,000  Level FlightAware ADS-B
Thu 06:19:37 PM 42.3960 -83.0950 94° East 452 520 39,000  Level FlightAware ADS-B
Thu 06:20:11 PM 42.3920 -83.0000 93° East 452 520 39,000  Level FlightAware ADS-B
Thu 06:20:46 PM 42.3880 -82.9020 93° East 453 521 39,000  Level FlightAware ADS-B
Thu 06:21:23 PM 42.3830 -82.7980 94° East 453 521 39,000  Level FlightAware ADS-B
Thu 06:21:59 PM 42.3790 -82.6950 93° East 453 521 39,000  Level FlightAware ADS-B
Thu 06:22:31 PM 42.3750 -82.6040 93° East 453 521 39,000  Level FlightAware ADS-B
Thu 06:23:09 PM 42.3710 -82.5000 93° East 454 522 39,000  Level FlightAware ADS-B
Thu 06:23:41 PM 42.3680 -82.4060 92° East 456 525 39,000  Level FlightAware ADS-B
Thu 06:24:15 PM 42.3640 -82.3140 93° East 457 526 39,000  Level FlightAware ADS-B
Thu 06:25:01 PM 42.3580 -82.1800 93° East 459 528 39,000  Level FlightAware ADS-B
Thu 06:25:32 PM 42.3540 -82.0860 93° East 460 529 39,000  Level FlightAware ADS-B
Thu 06:26:10 PM 42.3500 -81.9800 93° East 462 532 39,000  Level FlightAware ADS-B
Thu 06:26:45 PM 42.3450 -81.8760 94° East 464 534 39,000  Level FlightAware ADS-B
Thu 06:27:20 PM 42.3400 -81.7760 94° East 467 537 39,000  Level FlightAware ADS-B
Thu 06:27:54 PM 42.3360 -81.6820 93° East 468 539 39,000  Level FlightAware ADS-B
Thu 06:28:30 PM 42.3310 -81.5720 93° East 469 540 39,000  Level FlightAware ADS-B
Thu 06:29:05 PM 42.3260 -81.4720 94° East 470 541 39,000  Level FlightAware ADS-B
Thu 06:29:41 PM 42.3210 -81.3640 94° East 471 542 39,000  Level FlightAware ADS-B
Thu 06:30:14 PM 42.3160 -81.2690 94° East 471 542 39,000  Level FlightAware ADS-B
Thu 06:30:49 PM 42.3110 -81.1660 94° East 471 542 39,000  Level FlightAware ADS-B
Thu 06:31:27 PM 42.3050 -81.0540 94° East 471 542 39,000  Level FlightAware ADS-B
Thu 06:32:00 PM 42.3000 -80.9580 94° East 472 543 39,000  Level FlightAware ADS-B
Thu 06:32:37 PM 42.2950 -80.8500 94° East 472 543 39,000  Level FlightAware ADS-B
Thu 06:33:07 PM 42.2900 -80.7600 94° East 472 543 39,000  Level FlightAware ADS-B
Thu 06:33:44 PM 42.2840 -80.6520 94° East 473 544 39,000  Level FlightAware ADS-B
Thu 06:34:17 PM 42.2790 -80.5570 94° East 473 544 39,000  Level FlightAware ADS-B
Thu 06:34:55 PM 42.2720 -80.4430 95° East 472 543 39,000  Level FlightAware ADS-B
Thu 06:35:28 PM 42.2670 -80.3480 94° East 471 542 39,000  Level FlightAware ADS-B
Thu 06:36:00 PM 42.2610 -80.2530 95° East 471 542 39,000  Level FlightAware ADS-B
Thu 06:36:41 PM 42.2540 -80.1340 95° East 469 540 39,000  Level FlightAware ADS-B
Thu 06:37:14 PM 42.2480 -80.0420 95° East 468 539 39,000  Level FlightAware ADS-B
Thu 06:37:49 PM 42.2420 -79.9390 94° East 467 537 39,000  Level FlightAware ADS-B
Thu 06:38:26 PM 42.2350 -79.8310 95° East 467 537 39,000  Level FlightAware ADS-B
Thu 06:38:58 PM 42.2290 -79.7360 95° East 466 536 39,000  Level FlightAware ADS-B
Thu 06:39:35 PM 42.2230 -79.6310 94° East 467 537 39,000  Level FlightAware ADS-B
Thu 06:40:10 PM 42.2160 -79.5280 95° East 466 536 39,000  Level FlightAware ADS-B
Thu 06:40:43 PM 42.2100 -79.4340 95° East 466 536 39,000  Level FlightAware ADS-B
Thu 06:41:20 PM 42.2030 -79.3290 95° East 467 537 39,000  Level FlightAware ADS-B
Thu 06:41:57 PM 42.1960 -79.2220 95° East 466 536 39,000  Level FlightAware ADS-B
Thu 06:42:28 PM 42.1870 -79.1310 98° East 468 539 39,000  Level FlightAware ADS-B
Thu 06:43:12 PM 42.1610 -79.0060 106° East 468 539 39,000  Level FlightAware ADS-B
Thu 06:43:48 PM 42.1360 -78.9080 109° East 468 539 39,000  Level FlightAware ADS-B
Thu 06:44:21 PM 42.1130 -78.8190 109° East 467 537 39,000  Level FlightAware ADS-B
Thu 06:44:54 PM 42.0900 -78.7260 108° East 467 537 39,000  Level FlightAware ADS-B
Thu 06:45:30 PM 42.0640 -78.6260 109° East 467 537 39,000  Level FlightAware ADS-B
Thu 06:46:06 PM 42.0410 -78.5320 108° East 467 537 39,000  Level FlightAware ADS-B
Thu 06:46:40 PM 42.0160 -78.4340 109° East 467 537 39,000  Level FlightAware ADS-B
Thu 06:47:18 PM 41.9900 -78.3360 110° East 467 537 39,000  Level FlightAware ADS-B
Thu 06:47:49 PM 41.9680 -78.2470 108° East 467 537 39,000  Level FlightAware ADS-B
Thu 06:48:25 PM 41.9420 -78.1490 110° East 467 537 39,000  Level FlightAware ADS-B
Thu 06:49:01 PM 41.9170 -78.0500 109° East 468 539 39,000  Level FlightAware ADS-B
Thu 06:49:37 PM 41.8910 -77.9510 109° East 467 537 39,000  Level FlightAware ADS-B
Thu 06:50:13 PM 41.8650 -77.8530 110° East 467 537 39,000  Level FlightAware ADS-B
Thu 06:50:49 PM 41.8400 -77.7560 109° East 468 539 39,000  Level FlightAware ADS-B
Thu 06:51:21 PM 41.8170 -77.6680 109° East 468 539 39,000  Level FlightAware ADS-B
Thu 06:51:55 PM 41.7930 -77.5770 109° East 469 540 39,000  Level FlightAware ADS-B
Thu 06:52:31 PM 41.7660 -77.4770 110° East 469 540 39,000  Level FlightAware ADS-B
Thu 06:53:07 PM 41.7390 -77.3770 110° East 469 540 39,000  Level FlightAware ADS-B
Thu 06:53:43 PM 41.7140 -77.2820 109° East 468 539 39,000  Level FlightAware ADS-B
Thu 06:54:15 PM 41.6900 -77.1930 110° East 468 539 39,000  Level FlightAware ADS-B
Thu 06:54:51 PM 41.6650 -77.1000 110° East 468 539 39,000  Level FlightAware ADS-B
Thu 06:55:25 PM 41.6380 -77.0020 110° East 469 540 39,000  Level FlightAware ADS-B
Thu 06:56:01 PM 41.6120 -76.9070 110° East 469 540 39,000  Level FlightAware ADS-B
Thu 06:56:35 PM 41.5870 -76.8130 110° East 469 540 39,000  Level FlightAware ADS-B
Thu 06:57:04 PM 41.5660 -76.7380 110° East 469 540 39,000  Level FlightAware ADS-B
Thu 06:57:39 PM 41.5390 -76.6400 110° East 469 540 39,000  Level FlightAware ADS-B
Thu 06:58:17 PM 41.5110 -76.5370 110° East 469 540 39,000  Level FlightAware ADS-B
Thu 06:58:52 PM 41.4840 -76.4400 110° East 470 541 39,000 -82 Level FlightAware ADS-B
Thu 06:59:30 PM 41.4560 -76.3400 110° East 466 536 38,900 -1,077 Descending FlightAware ADS-B
Thu 07:00:10 PM 41.4280 -76.2370 110° East 466 536 37,600 -2,137 Descending FlightAware ADS-B
Thu 07:00:43 PM 41.4010 -76.1420 111° Southeast 464 534 36,300 -2,419 Descending FlightAware ADS-B
Thu 07:01:12 PM 41.3800 -76.0680 111° Southeast 463 533 35,100 -2,571 Descending FlightAware ADS-B
Thu 07:01:53 PM 41.3490 -75.9560 110° East 463 533 33,300 -2,692 Descending FlightAware ADS-B
Thu 07:02:30 PM 41.3220 -75.8600 111° Southeast 464 534 31,600 -2,957 Descending FlightAware ADS-B
Thu 07:03:02 PM 41.2970 -75.7730 111° Southeast 465 535 29,900 -2,649 Descending FlightAware ADS-B
Thu 07:03:47 PM 41.2640 -75.6620 112° Southeast 460 529 28,200 -2,444 Descending FlightAware ADS-B
Thu 07:04:23 PM 41.2300 -75.5610 114° Southeast 448 516 26,600 -2,418 Descending FlightAware ADS-B
Thu 07:04:54 PM 41.2050 -75.4870 114° Southeast 440 506 25,500 -2,229 Descending FlightAware ADS-B
Thu 07:05:33 PM 41.1730 -75.3910 114° Southeast 430 495 24,000 -2,028 Descending FlightAware ADS-B
Thu 07:06:05 PM 41.1470 -75.3150 114° Southeast 426 490 23,100 -909 Descending FlightAware ADS-B
Thu 07:06:39 PM 41.1210 -75.2380 114° Southeast 424 488 23,000 -85 Descending FlightAware ADS-B
Thu 07:07:16 PM 41.0930 -75.1540 114° Southeast 423 487 23,000  Level FlightAware ADS-B
Thu 07:07:50 PM 41.0640 -75.0700 115° Southeast 424 488 23,000 -375 Level FlightAware ADS-B
Thu 07:08:20 PM 41.0400 -74.9980 114° Southeast 421 484 22,600 -1,343 Descending FlightAware ADS-B
Thu 07:08:57 PM 41.0100 -74.9080 114° Southeast 418 481 21,500 -1,147 Descending FlightAware ADS-B
Thu 07:09:28 PM 40.9920 -74.8320 107° East 414 476 21,300 -441 Descending FlightAware ADS-B
Thu 07:10:05 PM 40.9810 -74.7390 99° East 410 472 21,000 -507 Descending FlightAware ADS-B
Thu 07:10:39 PM 40.9730 -74.6560 97° East 408 470 20,700 -462 Descending FlightAware ADS-B
Thu 07:11:23 PM 40.9640 -74.5700 98° East 408 470 20,400 -480 Descending FlightAware ADS-B
Thu 07:11:54 PM 40.9530 -74.4720 98° East 406 467 20,100 -716 Descending FlightAware ADS-B
Thu 07:12:30 PM 40.9430 -74.3860 99° East 393 452 19,600 -943 Descending FlightAware ADS-B
Thu 07:13:04 PM 40.9340 -74.3070 99° East 371 427 19,000 -522 Descending FlightAware ADS-B
Thu 07:13:39 PM 40.9260 -74.2350 98° East 339 390 19,000  Level FlightAware ADS-B
Thu 07:14:15 PM 40.9170 -74.1590 99° East 336 387 19,000  Level FlightAware ADS-B
Thu 07:14:30 PM 40.9100 -74.1300 108° East 338 389 19,000 -727 Level FlightAware ADS-B
Thu 07:14:48 PM 40.8958 -74.0944 118° Southeast 340 391 18,600 -1,469 Descending FlightAware ADS-B
Thu 07:15:19 PM 40.8693 -74.0406 123° Southeast 339 390 17,800 -1,500 Descending FlightAware ADS-B
Thu 07:15:36 PM 40.8551 -74.0127 124° Southeast 335 386 17,400 -1,548 Descending FlightAware ADS-B (KSNC)
Thu 07:15:50 PM 40.8432 -73.9891 124° Southeast 335 386 17,000 -1,200 Descending FlightAware ADS-B
Thu 07:16:51 PM 40.7922 -73.8862 123° Southeast 325 374 15,900 -857 Descending FlightAware ADS-B (KSNC)
Thu 07:17:21 PM 40.7643 -73.8386 128° Southeast 329 379 15,700 -1,077 Descending FlightAware ADS-B
Thu 07:18:09 PM 40.7060 -73.7910 148° Southeast 327 376 14,500 -1,522 Descending FlightAware ADS-B
Thu 07:18:28 PM 40.6860 -73.7754 150° Southeast 326 375 14,000 -1,522 Descending FlightAware ADS-B (KSNC)
Thu 07:19:16 PM 40.6190 -73.7230 149° Southeast 315 362 12,800 -1,744 Descending FlightAware ADS-B
Thu 07:19:54 PM 40.5710 -73.6860 150° Southeast 305 351 11,500 -2,087 Descending FlightAware ADS-B
Thu 07:20:02 PM 40.5600 -73.6810 161° South 305 351 11,200 -2,118 Descending FlightAware ADS-B
Thu 07:20:11 PM 40.5500 -73.6800 176° South 305 351 10,900 -2,545 Descending FlightAware ADS-B
Thu 07:20:35 PM 40.5130 -73.6850 186° South 300 345 9,800 -2,533 Descending FlightAware ADS-B
Thu 07:20:56 PM 40.4860 -73.6910 190° South 296 341 9,000 -2,341 Descending FlightAware ADS-B
Thu 07:21:16 PM 40.4600 -73.7010 196° South 295 339 8,200 -2,276 Descending FlightAware ADS-B
Thu 07:21:25 PM 40.4500 -73.7110 217° Southwest 292 336 7,900 -2,483 Descending FlightAware ADS-B
Thu 07:21:45 PM 40.4310 -73.7370 226° Southwest 288 331 7,000 -2,488 Descending FlightAware ADS-B
Thu 07:22:06 PM 40.4120 -73.7630 226° Southwest 287 330 6,200 -2,400 Descending FlightAware ADS-B
Thu 07:22:25 PM 40.3940 -73.7870 225° Southwest 287 330 5,400 -2,400 Descending FlightAware ADS-B
Thu 07:22:41 PM 40.3790 -73.8080 227° Southwest 282 325 4,800 -1,846 Descending FlightAware ADS-B
Thu 07:22:51 PM 40.3740 -73.8200 241° Southwest 271 312 4,600 -1,200 Descending FlightAware ADS-B
Thu 07:23:01 PM 40.3710 -73.8370 257° West 252 290 4,400 -789 Descending FlightAware ADS-B
Thu 07:23:29 PM 40.3770 -73.8740 282° West 221 254 4,100 -625 Descending FlightAware ADS-B
Thu 07:23:49 PM 40.3880 -73.8970 302° West 211 243 3,900 -414 Descending FlightAware ADS-B
Thu 07:23:58 PM 40.3930 -73.9020 323° Northwest 210 242 3,900  Level FlightAware ADS-B
Thu 07:24:06 PM 40.4010 -73.9090 326° Northwest 207 238 3,900 -632 Level FlightAware ADS-B
Thu 07:24:17 PM 40.4110 -73.9120 347° North 201 231 3,700 -1,043 Descending FlightAware ADS-B
Thu 07:24:52 PM 40.4430 -73.9080 North 200 230 3,100 -800 Descending FlightAware ADS-B
Thu 07:25:17 PM 40.4600 -73.8980 24° Northeast 188 216 2,900 -652 Descending FlightAware ADS-B
Thu 07:25:38 PM 40.4780 -73.8860 27° Northeast 178 205 2,600 -837 Descending FlightAware ADS-B
Thu 07:26:00 PM 40.4940 -73.8730 32° Northeast 177 204 2,300 -1,050 Descending FlightAware ADS-B
Thu 07:26:18 PM 40.5071 -73.8624 32° Northeast 178 205 1,900 -492 Descending FlightAware ADS-B
Thu 07:27:01 PM 40.5390 -73.8380 30° Northeast 183 211 1,800 -286 Descending FlightAware ADS-B
Thu 07:27:21 PM 40.5520 -73.8280 30° Northeast 166 191 1,600 -789 Descending FlightAware ADS-B
Thu 07:27:39 PM 40.5640 -73.8180 32° Northeast 154 177 1,300 -900 Descending FlightAware ADS-B
Thu 07:28:01 PM 40.5770 -73.8090 28° Northeast 139 160 1,000 -783 Descending FlightAware ADS-B
Thu 07:28:25 PM 40.5890 -73.7980 35° Northeast 135 155 700 -682 Descending FlightAware ADS-B
Thu 07:28:45 PM 40.6000 -73.7900 29° Northeast 135 155 500 -563 Descending FlightAware ADS-B
Thu 07:28:57 PM 40.6070 -73.7850 28° Northeast 133 153 400 -706 Descending FlightAware ADS-B
Thu 07:29:19 PM 40.6190 -73.7760 30° Northeast 132 152 100 -818 Descending FlightAware ADS-B
Thu 07:29:40 PM 40.6290 -73.7670 34° Northeast 130 150 -286 Descending FlightAware ADS-B

Login

Don't have an account? Register now (free) for customized features, flight alerts, and more!